createdAt,value
2019-01-26T00:01:09.020Z,98.36
2019-01-26T00:03:39.886Z,98.67
2019-01-26T00:06:11.960Z,98.52
2019-01-26T00:08:42.748Z,97.86
2019-01-26T00:11:14.023Z,98.00
2019-01-26T00:13:44.803Z,98.08
2019-01-26T00:16:20.970Z,98.06
2019-01-26T00:18:48.064Z,98.10
2019-01-26T00:21:18.996Z,98.13
2019-01-26T00:23:50.327Z,98.56
2019-01-26T00:26:21.211Z,98.26
2019-01-26T00:28:52.004Z,97.90
2019-01-26T00:31:22.923Z,98.06
2019-01-26T00:33:53.812Z,98.07
2019-01-26T00:36:24.927Z,98.34
2019-01-26T00:38:55.705Z,98.13
2019-01-26T00:41:26.861Z,97.91
2019-01-26T00:43:57.625Z,98.08
2019-01-26T00:46:29.680Z,98.04
2019-01-26T00:49:00.452Z,98.15
2019-01-26T00:51:31.240Z,98.11
2019-01-26T00:54:02.156Z,98.42
2019-01-26T00:56:33.388Z,98.42
2019-01-26T00:59:04.371Z,98.24
2019-01-26T01:01:35.491Z,98.27
2019-01-26T01:04:06.592Z,97.91
2019-01-26T01:06:37.474Z,98.22
2019-01-26T01:09:09.662Z,98.91
2019-01-26T01:11:41.001Z,98.90
2019-01-26T01:14:12.314Z,98.70
2019-01-26T01:16:43.448Z,98.91
2019-01-26T01:19:14.222Z,98.96
2019-01-26T01:21:46.119Z,98.90
2019-01-26T01:24:17.237Z,99.10
2019-01-26T01:26:48.098Z,99.38
2019-01-26T01:29:18.887Z,99.06
2019-01-26T01:31:49.665Z,99.60
2019-01-26T01:34:20.475Z,99.69
2019-01-26T01:36:52.396Z,99.70
2019-01-26T01:39:23.290Z,99.67
2019-01-26T01:41:54.180Z,100.00
2019-01-26T01:44:25.211Z,100.00
2019-01-26T01:46:56.225Z,100.00
2019-01-26T01:49:27.268Z,100.00
2019-01-26T01:51:58.263Z,99.94
2019-01-26T01:54:29.042Z,99.79
2019-01-26T01:56:59.805Z,99.77
2019-01-26T01:59:30.798Z,99.92
2019-01-26T02:02:01.706Z,99.81
2019-01-26T02:04:32.479Z,99.61
2019-01-26T02:07:03.532Z,99.52
2019-01-26T02:09:34.544Z,99.54
2019-01-26T02:12:05.443Z,99.93
2019-01-26T02:14:36.459Z,99.66
2019-01-26T02:17:07.607Z,98.96
2019-01-26T02:19:38.864Z,98.94
2019-01-26T02:22:09.945Z,98.33
2019-01-26T02:24:40.779Z,98.16
2019-01-26T02:27:11.784Z,98.06
2019-01-26T02:29:42.837Z,97.55
2019-01-26T02:32:13.904Z,97.91
2019-01-26T02:34:45.230Z,97.77
2019-01-26T02:37:16.003Z,97.77
2019-01-26T02:39:46.758Z,97.28
2019-01-26T02:42:17.611Z,97.34
2019-01-26T02:44:48.632Z,96.90
2019-01-26T02:47:19.409Z,96.63
2019-01-26T02:49:50.407Z,96.67
2019-01-26T02:52:21.480Z,96.65
2019-01-26T02:54:52.493Z,96.32
2019-01-26T02:57:23.533Z,96.22
2019-01-26T02:59:54.544Z,96.58
2019-01-26T03:02:25.672Z,96.12
2019-01-26T03:04:56.670Z,96.26
2019-01-26T03:07:27.620Z,96.37
2019-01-26T03:09:58.961Z,96.10
2019-01-26T03:12:29.707Z,96.04
2019-01-26T03:15:00.773Z,96.36
2019-01-26T03:17:31.608Z,96.22
2019-01-26T03:20:02.926Z,96.00
2019-01-26T03:22:33.922Z,96.08
2019-01-26T03:25:06.774Z,96.47
2019-01-26T03:27:37.846Z,96.53
2019-01-26T03:30:12.256Z,96.28
2019-01-26T03:32:43.799Z,96.64
2019-01-26T03:35:14.853Z,96.33
2019-01-26T03:37:45.760Z,96.32
2019-01-26T03:40:18.368Z,96.36
2019-01-26T03:42:49.646Z,96.79
2019-01-26T03:45:20.810Z,96.99
2019-01-26T03:47:51.581Z,97.31
2019-01-26T03:50:22.645Z,97.44
2019-01-26T03:52:53.495Z,97.34
2019-01-26T03:55:24.558Z,97.37
2019-01-26T03:57:55.560Z,96.93
2019-01-26T04:00:27.123Z,97.07
2019-01-26T04:02:57.977Z,97.79
2019-01-26T04:05:29.210Z,97.21
2019-01-26T04:08:00.097Z,96.88
2019-01-26T04:10:31.145Z,96.20
2019-01-26T04:13:02.245Z,96.47
2019-01-26T04:15:32.997Z,96.43
2019-01-26T04:18:03.990Z,95.87
2019-01-26T04:20:34.820Z,95.96
2019-01-26T04:23:05.665Z,95.90
2019-01-26T04:25:36.650Z,95.85
2019-01-26T04:28:07.501Z,96.61
2019-01-26T04:30:38.259Z,96.12
2019-01-26T04:33:09.268Z,96.07
2019-01-26T04:35:40.250Z,96.48
2019-01-26T04:38:11.266Z,96.10
2019-01-26T04:40:42.576Z,95.78
2019-01-26T04:43:13.580Z,96.29
2019-01-26T04:45:44.359Z,95.85
2019-01-26T04:48:15.579Z,95.11
2019-01-26T04:50:46.620Z,95.32
2019-01-26T04:53:17.406Z,95.40
2019-01-26T04:55:48.456Z,95.60
2019-01-26T04:58:19.235Z,95.50
2019-01-26T05:00:50.223Z,95.46
2019-01-26T05:03:21.295Z,95.93
2019-01-26T05:05:52.368Z,96.41
2019-01-26T05:08:23.634Z,95.90
2019-01-26T05:10:54.618Z,95.95
2019-01-26T05:13:25.669Z,96.31
2019-01-26T05:15:56.428Z,95.81
2019-01-26T05:18:27.268Z,96.08
2019-01-26T05:20:58.318Z,95.89
2019-01-26T05:23:29.556Z,96.17
2019-01-26T05:26:00.398Z,96.40
2019-01-26T05:28:32.334Z,96.32
2019-01-26T05:31:03.186Z,96.11
2019-01-26T05:33:33.954Z,96.10
2019-01-26T05:36:04.816Z,96.32
2019-01-26T05:38:35.594Z,96.39
2019-01-26T05:41:06.747Z,95.82
2019-01-26T05:43:37.732Z,96.02
2019-01-26T05:46:08.883Z,96.46
2019-01-26T05:48:39.934Z,96.62
2019-01-26T05:51:10.938Z,96.60
2019-01-26T05:53:42.191Z,96.41
2019-01-26T05:56:13.195Z,96.46
2019-01-26T05:58:44.035Z,96.08
2019-01-26T06:01:14.803Z,96.54
2019-01-26T06:03:46.101Z,96.30
2019-01-26T06:06:16.978Z,96.46
2019-01-26T06:08:47.815Z,96.26
2019-01-26T06:11:19.047Z,96.90
2019-01-26T06:13:50.041Z,96.42
2019-01-26T06:16:21.117Z,96.24
2019-01-26T06:18:52.119Z,96.38
2019-01-26T06:21:23.193Z,97.11
2019-01-26T06:23:55.518Z,97.05
2019-01-26T06:26:26.668Z,96.61
2019-01-26T06:28:57.502Z,97.33
2019-01-26T06:31:28.457Z,97.62
2019-01-26T06:33:59.582Z,97.15
2019-01-26T06:36:30.704Z,97.35
2019-01-26T06:39:01.476Z,97.43
2019-01-26T06:41:33.401Z,97.07
2019-01-26T06:44:04.334Z,97.24
2019-01-26T06:46:35.100Z,96.94
2019-01-26T06:49:06.175Z,97.40
2019-01-26T06:51:38.816Z,97.28
2019-01-26T06:54:09.798Z,97.06
2019-01-26T06:56:40.657Z,97.35
2019-01-26T06:59:11.420Z,97.29
2019-01-26T07:01:42.203Z,97.17
2019-01-26T07:04:17.103Z,97.06
2019-01-26T07:07:05.476Z,97.29
2019-01-26T07:09:36.320Z,97.49
2019-01-26T07:12:07.166Z,97.31
2019-01-26T07:14:37.970Z,97.47
2019-01-26T07:17:08.739Z,97.51
2019-01-26T07:19:39.650Z,97.42
2019-01-26T07:22:10.521Z,96.94
2019-01-26T07:24:41.831Z,96.79
2019-01-26T07:27:12.639Z,96.71
2019-01-26T07:29:44.412Z,97.17
2019-01-26T07:32:15.358Z,96.92
2019-01-26T07:34:46.627Z,97.05
2019-01-26T07:37:17.625Z,96.61
2019-01-26T07:39:48.402Z,96.90
2019-01-26T07:42:19.674Z,96.82
2019-01-26T07:44:50.603Z,96.86
2019-01-26T07:47:21.921Z,97.13
2019-01-26T07:49:53.238Z,96.98
2019-01-26T07:52:24.532Z,96.74
2019-01-26T07:54:55.559Z,97.14
2019-01-26T07:57:26.567Z,97.29
2019-01-26T07:59:57.334Z,97.78
2019-01-26T08:02:28.876Z,97.05
2019-01-26T08:05:01.103Z,97.13
2019-01-26T08:07:31.870Z,97.03
2019-01-26T08:10:02.742Z,96.64
2019-01-26T08:12:33.657Z,96.80
2019-01-26T08:15:05.442Z,96.66
2019-01-26T08:17:36.700Z,96.92
2019-01-26T08:20:10.375Z,96.77
2019-01-26T08:22:41.434Z,97.05
2019-01-26T08:25:12.285Z,97.04
2019-01-26T08:27:43.467Z,96.94
2019-01-26T08:30:16.748Z,96.97
2019-01-26T08:32:47.677Z,97.25
2019-01-26T08:35:18.867Z,97.03
2019-01-26T08:37:50.175Z,97.05
2019-01-26T08:40:21.348Z,96.79
2019-01-26T08:42:52.264Z,96.70
2019-01-26T08:45:23.438Z,96.83
2019-01-26T08:47:54.304Z,96.36
2019-01-26T08:50:26.040Z,96.61
2019-01-26T08:52:57.066Z,96.56
2019-01-26T08:55:28.188Z,96.70
2019-01-26T08:57:59.028Z,96.94
2019-01-26T09:00:30.090Z,96.36
2019-01-26T09:03:20.089Z,96.43
2019-01-26T09:06:09.096Z,96.70
2019-01-26T09:08:39.930Z,96.35
2019-01-26T09:11:11.034Z,96.14
2019-01-26T09:13:42.765Z,95.61
2019-01-26T09:16:13.763Z,95.38
2019-01-26T09:18:44.746Z,95.63
2019-01-26T09:21:15.764Z,95.36
2019-01-26T09:23:46.742Z,95.27
2019-01-26T09:26:17.653Z,95.18
2019-01-26T09:28:48.754Z,94.90
2019-01-26T09:31:19.524Z,95.19
2019-01-26T09:33:50.273Z,95.12
2019-01-26T09:36:21.338Z,94.95
2019-01-26T09:38:52.143Z,94.98
2019-01-26T09:41:22.987Z,94.65
2019-01-26T09:43:54.045Z,94.39
2019-01-26T09:46:24.898Z,94.07
2019-01-26T09:48:55.795Z,94.42
2019-01-26T09:51:26.648Z,94.37
2019-01-26T09:53:57.484Z,94.44
2019-01-26T09:56:28.338Z,94.32
2019-01-26T09:58:59.087Z,94.65
2019-01-26T10:01:29.936Z,94.13
2019-01-26T10:04:00.754Z,94.25
2019-01-26T10:06:31.821Z,94.20
2019-01-26T10:09:04.597Z,94.04
2019-01-26T10:11:35.722Z,94.08
2019-01-26T10:14:06.552Z,93.65
2019-01-26T10:16:37.381Z,93.94
2019-01-26T10:19:08.515Z,94.27
2019-01-26T10:21:39.264Z,93.76
2019-01-26T10:24:10.108Z,93.21
2019-01-26T10:26:40.949Z,93.33
2019-01-26T10:29:11.882Z,93.69
2019-01-26T10:31:44.158Z,93.54
2019-01-26T10:34:15.472Z,93.52
2019-01-26T10:36:54.398Z,93.26
2019-01-26T10:39:25.386Z,93.12
2019-01-26T10:42:18.344Z,93.25
2019-01-26T10:44:49.486Z,92.79
2019-01-26T10:47:20.499Z,92.34
2019-01-26T10:49:51.753Z,92.27
2019-01-26T10:52:22.896Z,92.71
2019-01-26T10:54:53.866Z,92.48
2019-01-26T10:57:24.842Z,92.37
2019-01-26T10:59:55.820Z,92.95
2019-01-26T11:02:26.592Z,92.73
2019-01-26T11:04:57.344Z,92.75
2019-01-26T11:07:28.105Z,92.60
2019-01-26T11:09:59.085Z,92.94
2019-01-26T11:12:30.179Z,92.73
2019-01-26T11:15:00.939Z,92.94
2019-01-26T11:17:31.938Z,92.95
2019-01-26T11:20:02.685Z,93.06
2019-01-26T11:22:33.520Z,92.56
2019-01-26T11:25:05.058Z,92.86
2019-01-26T11:27:35.969Z,92.90
2019-01-26T11:30:08.183Z,93.16
2019-01-26T11:32:39.018Z,93.37
2019-01-26T11:35:10.927Z,93.88
2019-01-26T11:37:41.918Z,94.00
2019-01-26T11:40:19.201Z,93.45
2019-01-26T11:42:49.969Z,94.33
2019-01-26T11:45:40.157Z,93.57
2019-01-26T11:48:20.583Z,93.34
2019-01-26T11:50:56.401Z,93.58
2019-01-26T11:53:27.532Z,94.21
2019-01-26T11:56:06.456Z,94.34
2019-01-26T11:58:37.766Z,94.29
2019-01-26T12:01:30.724Z,94.57
2019-01-26T12:04:08.912Z,94.92
2019-01-26T12:06:48.013Z,94.70
2019-01-26T12:09:19.050Z,94.54
2019-01-26T12:11:50.099Z,94.85
2019-01-26T12:14:20.867Z,94.52
2019-01-26T12:16:51.756Z,94.60
2019-01-26T12:19:22.634Z,94.09
2019-01-26T12:21:53.505Z,94.04
2019-01-26T12:24:24.511Z,95.34
2019-01-26T12:26:55.333Z,94.24
2019-01-26T12:29:26.139Z,93.97
2019-01-26T12:31:57.229Z,93.81
2019-01-26T12:34:28.286Z,93.66
2019-01-26T12:36:59.129Z,93.88
2019-01-26T12:39:29.966Z,93.97
2019-01-26T12:42:00.726Z,93.81
2019-01-26T12:44:31.487Z,94.03
2019-01-26T12:47:02.362Z,94.28
2019-01-26T12:49:33.127Z,94.15
2019-01-26T12:52:03.963Z,93.64
2019-01-26T12:54:35.217Z,93.95
2019-01-26T12:57:06.126Z,93.92
2019-01-26T12:59:37.117Z,94.34
2019-01-26T13:02:08.123Z,94.02
2019-01-26T13:04:39.190Z,94.14
2019-01-26T13:07:10.015Z,94.39
2019-01-26T13:09:40.886Z,93.85
2019-01-26T13:12:11.707Z,93.54
2019-01-26T13:14:42.935Z,93.62
2019-01-26T13:17:14.950Z,94.11
2019-01-26T13:19:45.741Z,94.42
2019-01-26T13:22:16.498Z,94.08
2019-01-26T13:24:47.307Z,94.00
2019-01-26T13:27:18.135Z,94.01
2019-01-26T13:29:48.922Z,93.91
2019-01-26T13:32:19.677Z,94.11
2019-01-26T13:34:50.448Z,94.51
2019-01-26T13:37:21.240Z,93.81
2019-01-26T13:39:52.141Z,93.71
2019-01-26T13:42:23.211Z,93.39
2019-01-26T13:44:54.198Z,93.23
2019-01-26T13:47:25.020Z,93.55
2019-01-26T13:49:56.036Z,93.59
2019-01-26T13:52:27.039Z,93.12
2019-01-26T13:54:58.056Z,93.29
2019-01-26T13:57:30.010Z,93.26
2019-01-26T14:00:00.824Z,93.14
2019-01-26T14:02:31.585Z,92.32
2019-01-26T14:05:02.646Z,92.82
2019-01-26T14:07:33.410Z,93.01
2019-01-26T14:10:05.139Z,93.20
2019-01-26T14:12:35.913Z,93.52
2019-01-26T14:15:06.981Z,93.01
2019-01-26T14:17:37.806Z,93.67
2019-01-26T14:20:11.426Z,94.24
2019-01-26T14:22:42.564Z,94.09
2019-01-26T14:25:13.694Z,94.25
2019-01-26T14:27:44.622Z,93.85
2019-01-26T14:30:42.736Z,94.05
2019-01-26T14:33:13.569Z,93.89
2019-01-26T14:35:44.846Z,94.40
2019-01-26T14:38:16.718Z,94.19
2019-01-26T14:40:47.570Z,94.28
2019-01-26T14:43:18.329Z,94.92
2019-01-26T14:45:49.179Z,94.52
2019-01-26T14:48:20.082Z,94.77
2019-01-26T14:50:50.927Z,94.99
2019-01-26T14:53:21.756Z,95.03
2019-01-26T14:55:52.764Z,94.83
2019-01-26T14:58:23.981Z,94.64
2019-01-26T15:00:54.838Z,94.92
2019-01-26T15:03:26.055Z,95.20
2019-01-26T15:05:57.075Z,95.16
2019-01-26T15:08:27.826Z,95.38
2019-01-26T15:10:58.810Z,95.80
2019-01-26T15:13:29.782Z,95.82
2019-01-26T15:16:00.997Z,95.77
2019-01-26T15:18:31.833Z,95.63
2019-01-26T15:21:03.043Z,95.80
2019-01-26T15:23:34.268Z,96.12
2019-01-26T15:26:05.946Z,95.88
2019-01-26T15:28:42.923Z,96.08
2019-01-26T15:31:09.348Z,95.96
2019-01-26T15:33:40.096Z,96.23
2019-01-26T15:36:11.124Z,95.88
2019-01-26T15:38:42.172Z,96.36
2019-01-26T15:41:13.227Z,96.35
2019-01-26T15:43:44.542Z,96.37
2019-01-26T15:46:15.791Z,96.60
2019-01-26T15:48:46.796Z,96.30
2019-01-26T15:51:17.837Z,97.26
2019-01-26T15:53:49.160Z,97.96
2019-01-26T15:56:20.159Z,97.93
2019-01-26T15:58:50.917Z,97.70
2019-01-26T16:01:21.913Z,98.04
2019-01-26T16:03:53.881Z,98.23
2019-01-26T16:06:24.873Z,98.27
2019-01-26T16:08:55.704Z,97.97
2019-01-26T16:11:26.546Z,98.28
2019-01-26T16:13:57.614Z,98.26
2019-01-26T16:16:28.614Z,97.64
2019-01-26T16:18:59.684Z,97.29
2019-01-26T16:21:30.682Z,97.97
2019-01-26T16:24:01.689Z,97.67
2019-01-26T16:26:32.548Z,97.50
2019-01-26T16:29:03.663Z,97.91
2019-01-26T16:31:34.578Z,97.39
2019-01-26T16:34:05.413Z,96.89
2019-01-26T16:36:36.476Z,96.83
2019-01-26T16:39:09.999Z,96.86
2019-01-26T16:41:41.351Z,96.98
2019-01-26T16:44:12.262Z,96.73
2019-01-26T16:46:43.422Z,97.19
2019-01-26T16:49:14.415Z,97.27
2019-01-26T16:51:45.532Z,96.82
2019-01-26T16:54:16.509Z,96.84
2019-01-26T16:56:47.283Z,96.86
2019-01-26T16:59:18.117Z,97.46
2019-01-26T17:01:49.352Z,97.51
2019-01-26T17:04:20.217Z,98.25
2019-01-26T17:06:52.057Z,98.96
2019-01-26T17:09:23.043Z,99.93
2019-01-26T17:11:53.820Z,100.00
2019-01-26T17:14:24.569Z,99.90
2019-01-26T17:16:55.959Z,100.00
2019-01-26T17:19:26.714Z,99.94
2019-01-26T17:21:57.747Z,99.99
2019-01-26T17:24:28.520Z,100.00
2019-01-26T17:26:59.290Z,99.91
2019-01-26T17:29:30.113Z,99.58
2019-01-26T17:32:01.101Z,99.62
2019-01-26T17:34:32.827Z,99.44
2019-01-26T17:37:04.281Z,99.03
2019-01-26T17:39:35.251Z,99.12
2019-01-26T17:42:06.089Z,99.71
2019-01-26T17:44:36.848Z,99.21
2019-01-26T17:47:07.622Z,99.22
2019-01-26T17:49:38.675Z,99.21
2019-01-26T17:52:09.744Z,99.09
2019-01-26T17:54:40.500Z,98.89
2019-01-26T17:57:11.291Z,99.22
2019-01-26T17:59:42.281Z,99.25
2019-01-26T18:02:13.213Z,99.51
2019-01-26T18:04:43.976Z,99.30
2019-01-26T18:07:14.754Z,99.05
2019-01-26T18:09:45.660Z,99.10
2019-01-26T18:12:16.714Z,98.93
2019-01-26T18:14:47.574Z,98.96
2019-01-26T18:17:18.417Z,99.06
2019-01-26T18:19:49.604Z,98.68
2019-01-26T18:22:20.677Z,98.65
2019-01-26T18:24:51.516Z,98.72
2019-01-26T18:27:22.439Z,98.71
2019-01-26T18:29:53.810Z,98.71
2019-01-26T18:32:24.818Z,98.34
2019-01-26T18:34:55.652Z,98.34
2019-01-26T18:37:26.751Z,98.61
2019-01-26T18:39:58.085Z,98.42
2019-01-26T18:42:29.345Z,98.28
2019-01-26T18:45:00.197Z,98.13
2019-01-26T18:47:31.234Z,98.14
2019-01-26T18:50:02.140Z,98.01
2019-01-26T18:52:33.319Z,98.03
2019-01-26T18:55:04.608Z,98.56
2019-01-26T18:57:35.558Z,98.01
2019-01-26T19:00:10.888Z,98.13
2019-01-26T19:02:42.503Z,97.92
2019-01-26T19:05:15.093Z,97.82
2019-01-26T19:07:46.871Z,97.73
2019-01-26T19:10:17.793Z,97.24
2019-01-26T19:12:49.193Z,97.19
2019-01-26T19:15:21.684Z,97.33
2019-01-26T19:17:53.013Z,96.99
2019-01-26T19:20:24.154Z,96.79
2019-01-26T19:22:55.308Z,96.22
2019-01-26T19:25:27.439Z,96.43
2019-01-26T19:27:58.607Z,96.76
2019-01-26T19:30:31.414Z,96.24
2019-01-26T19:33:02.560Z,96.59
2019-01-26T19:35:33.789Z,96.70
2019-01-26T19:38:04.731Z,96.84
2019-01-26T19:40:35.809Z,96.54
2019-01-26T19:43:06.849Z,96.10
2019-01-26T19:45:37.954Z,95.74
2019-01-26T19:48:09.026Z,96.31
2019-01-26T19:50:40.142Z,96.00
2019-01-26T19:53:11.258Z,96.07
2019-01-26T19:55:42.090Z,95.82
2019-01-26T19:58:13.271Z,96.21
2019-01-26T20:00:44.178Z,96.26
2019-01-26T20:03:14.959Z,96.07
2019-01-26T20:05:48.151Z,95.93
2019-01-26T20:08:18.586Z,95.84
2019-01-26T20:10:49.792Z,95.58
2019-01-26T20:13:20.781Z,95.62
2019-01-26T20:15:51.908Z,95.93
2019-01-26T20:18:23.171Z,95.83
2019-01-26T20:20:54.017Z,95.83
2019-01-26T20:23:24.810Z,95.69
2019-01-26T20:25:55.559Z,95.57
2019-01-26T20:28:26.473Z,95.50
2019-01-26T20:30:57.254Z,95.57
2019-01-26T20:33:28.141Z,95.64
2019-01-26T20:35:58.994Z,95.49
2019-01-26T20:38:30.402Z,95.74
2019-01-26T20:41:01.525Z,95.83
2019-01-26T20:43:32.614Z,95.65
2019-01-26T20:46:03.511Z,95.69
2019-01-26T20:48:34.325Z,95.52
2019-01-26T20:51:05.386Z,95.53
2019-01-26T20:53:36.513Z,95.79
2019-01-26T20:56:07.457Z,95.47
2019-01-26T20:58:38.224Z,95.28
2019-01-26T21:01:09.272Z,95.34
2019-01-26T21:03:40.131Z,95.05
2019-01-26T21:06:10.912Z,94.71
2019-01-26T21:08:41.713Z,94.55
2019-01-26T21:11:13.069Z,94.42
2019-01-26T21:13:44.160Z,94.60
2019-01-26T21:16:14.997Z,94.40
2019-01-26T21:18:45.970Z,94.58
2019-01-26T21:21:17.033Z,94.40
2019-01-26T21:23:47.929Z,94.16
2019-01-26T21:26:18.921Z,94.06
2019-01-26T21:28:50.140Z,93.95
2019-01-26T21:31:20.909Z,94.26
2019-01-26T21:33:51.736Z,94.52
2019-01-26T21:36:22.605Z,94.29
2019-01-26T21:38:53.487Z,93.93
2019-01-26T21:41:24.249Z,94.06
2019-01-26T21:43:55.376Z,94.42
2019-01-26T21:46:26.439Z,94.37
2019-01-26T21:48:57.188Z,94.91
2019-01-26T21:51:28.317Z,94.90
2019-01-26T21:53:59.299Z,95.19
2019-01-26T21:56:30.144Z,95.34
2019-01-26T21:59:00.889Z,96.10
2019-01-26T22:01:31.730Z,95.06
2019-01-26T22:04:02.696Z,95.08
2019-01-26T22:06:33.679Z,94.85
2019-01-26T22:09:08.108Z,94.89
2019-01-26T22:11:39.942Z,94.85
2019-01-26T22:14:10.831Z,94.62
2019-01-26T22:16:41.666Z,93.95
2019-01-26T22:19:12.410Z,94.14
2019-01-26T22:21:46.101Z,93.50
2019-01-26T22:24:15.949Z,93.33
2019-01-26T22:26:47.898Z,93.55
2019-01-26T22:29:18.719Z,93.66
2019-01-26T22:31:49.485Z,92.93
2019-01-26T22:34:20.220Z,93.04
2019-01-26T22:36:50.971Z,92.72
2019-01-26T22:39:22.018Z,92.11
2019-01-26T22:41:53.011Z,92.27
2019-01-26T22:44:23.761Z,92.45
2019-01-26T22:46:54.785Z,91.92
2019-01-26T22:49:25.594Z,91.22
2019-01-26T22:51:56.872Z,91.15
2019-01-26T22:54:27.692Z,91.12
2019-01-26T22:56:58.826Z,91.36
2019-01-26T22:59:30.053Z,91.13
2019-01-26T23:02:00.885Z,91.41
2019-01-26T23:04:57.628Z,91.13
2019-01-26T23:08:07.313Z,90.97
2019-01-26T23:10:52.820Z,91.50
2019-01-26T23:13:55.218Z,91.69
2019-01-26T23:17:40.461Z,90.35
2019-01-26T23:20:44.308Z,89.90
2019-01-26T23:23:29.931Z,89.51
2019-01-26T23:26:29.099Z,89.92
2019-01-26T23:29:13.620Z,89.48
2019-01-26T23:31:44.611Z,89.38
2019-01-26T23:34:15.615Z,89.76
2019-01-26T23:36:46.740Z,89.34
2019-01-26T23:39:17.621Z,88.79
2019-01-26T23:41:48.696Z,88.82
2019-01-26T23:44:19.455Z,89.06
2019-01-26T23:46:50.206Z,88.65
2019-01-26T23:49:22.302Z,88.86
2019-01-26T23:51:53.137Z,88.93
2019-01-26T23:54:24.207Z,88.70
2019-01-26T23:56:55.049Z,88.93
2019-01-26T23:59:25.795Z,88.87
